createdAt,value
2017-10-14T00:02:22.012Z,11.15
2017-10-14T00:04:56.643Z,9.95
2017-10-14T00:07:30.346Z,11.80
2017-10-14T00:10:04.918Z,10.25
2017-10-14T00:12:40.178Z,8.88
2017-10-14T00:15:14.728Z,8.63
2017-10-14T00:17:49.357Z,9.52
2017-10-14T00:20:23.310Z,9.50
2017-10-14T00:22:57.419Z,9.55
2017-10-14T00:25:31.949Z,7.85
2017-10-14T00:28:06.019Z,8.18
2017-10-14T00:30:40.755Z,9.90
2017-10-14T00:33:15.660Z,10.65
2017-10-14T00:35:49.572Z,11.30
2017-10-14T00:38:23.676Z,7.47
2017-10-14T00:40:58.402Z,8.75
2017-10-14T00:43:32.503Z,10.10
2017-10-14T00:46:07.213Z,7.45
2017-10-14T00:48:41.912Z,9.07
2017-10-14T00:51:16.013Z,10.80
2017-10-14T00:53:49.684Z,11.07
2017-10-14T00:56:23.545Z,6.97
2017-10-14T00:58:57.195Z,8.07
2017-10-14T01:01:30.913Z,8.80
2017-10-14T01:04:04.625Z,7.37
2017-10-14T01:06:38.151Z,8.15
2017-10-14T01:09:11.730Z,7.10
2017-10-14T01:11:45.267Z,6.57
2017-10-14T01:14:18.817Z,7.10
2017-10-14T01:16:53.303Z,8.43
2017-10-14T01:19:26.878Z,7.03
2017-10-14T01:22:00.538Z,8.65
2017-10-14T01:24:34.239Z,8.63
2017-10-14T01:27:07.784Z,8.55
2017-10-14T01:29:41.418Z,9.07
2017-10-14T01:32:15.003Z,5.85
2017-10-14T01:34:48.523Z,6.20
2017-10-14T01:37:22.017Z,7.65
2017-10-14T01:39:55.619Z,9.68
2017-10-14T01:42:29.887Z,8.13
2017-10-14T01:45:03.740Z,7.93
2017-10-14T01:47:37.242Z,6.87
2017-10-14T01:50:10.838Z,7.07
2017-10-14T01:52:44.331Z,7.85
2017-10-14T01:55:17.963Z,6.60
2017-10-14T01:57:52.529Z,7.37
2017-10-14T02:00:26.104Z,7.28
2017-10-14T02:02:59.757Z,7.82
2017-10-14T02:05:33.500Z,6.85
2017-10-14T02:08:07.030Z,9.13
2017-10-14T02:10:40.562Z,8.52
2017-10-14T02:13:14.156Z,7.37
2017-10-14T02:15:47.796Z,6.85
2017-10-14T02:18:21.336Z,5.95
2017-10-14T02:20:55.185Z,9.02
2017-10-14T02:23:28.863Z,7.80
2017-10-14T02:26:02.447Z,8.20
2017-10-14T02:28:35.946Z,8.15
2017-10-14T02:31:09.555Z,7.55
2017-10-14T02:33:43.161Z,6.80
2017-10-14T02:36:16.760Z,8.85
2017-10-14T02:38:50.313Z,6.85
2017-10-14T02:41:24.597Z,6.20
2017-10-14T02:43:59.103Z,5.85
2017-10-14T02:46:32.725Z,8.98
2017-10-14T02:49:06.281Z,6.50
2017-10-14T02:51:39.840Z,6.50
2017-10-14T02:54:13.494Z,6.78
2017-10-14T02:56:47.115Z,7.22
2017-10-14T02:59:20.620Z,9.10
2017-10-14T03:01:54.216Z,10.10
2017-10-14T03:04:28.108Z,8.60
2017-10-14T03:07:01.877Z,7.18
2017-10-14T03:09:35.390Z,9.07
2017-10-14T03:12:09.778Z,7.62
2017-10-14T03:14:43.411Z,7.90
2017-10-14T03:17:17.020Z,7.00
2017-10-14T03:19:51.446Z,7.28
2017-10-14T03:22:25.197Z,6.97
2017-10-14T03:24:58.914Z,8.55
2017-10-14T03:27:33.428Z,8.20
2017-10-14T03:30:07.709Z,9.35
2017-10-14T03:32:41.401Z,9.77
2017-10-14T03:35:14.986Z,9.02
2017-10-14T03:37:48.618Z,9.07
2017-10-14T03:40:22.299Z,8.95
2017-10-14T03:42:55.900Z,9.13
2017-10-14T03:45:30.218Z,6.45
2017-10-14T03:48:03.768Z,10.40
2017-10-14T03:50:37.408Z,6.18
2017-10-14T03:53:11.969Z,6.95
2017-10-14T03:55:45.581Z,5.78
2017-10-14T03:58:19.300Z,6.85
2017-10-14T04:00:53.766Z,7.28
2017-10-14T04:03:28.308Z,9.25
2017-10-14T04:06:01.989Z,5.70
2017-10-14T04:08:35.618Z,8.90
2017-10-14T04:11:10.160Z,6.15
2017-10-14T04:13:43.739Z,5.78
2017-10-14T04:16:17.309Z,4.72
2017-10-14T04:18:51.642Z,5.45
2017-10-14T04:21:25.274Z,5.60
2017-10-14T04:23:58.982Z,5.07
2017-10-14T04:26:32.664Z,5.30
2017-10-14T04:29:06.268Z,4.78
2017-10-14T04:31:40.536Z,5.43
2017-10-14T04:34:14.134Z,4.75
2017-10-14T04:36:47.646Z,4.78
2017-10-14T04:39:21.183Z,5.18
2017-10-14T04:41:54.833Z,5.57
2017-10-14T04:44:28.629Z,7.55
2017-10-14T04:47:02.979Z,6.40
2017-10-14T04:49:37.511Z,6.07
2017-10-14T04:52:11.180Z,5.85
2017-10-14T04:54:45.532Z,8.02
2017-10-14T04:57:19.033Z,6.93
2017-10-14T04:59:52.645Z,8.32
2017-10-14T05:02:26.176Z,6.30
2017-10-14T05:04:59.724Z,6.72
2017-10-14T05:07:33.298Z,6.85
2017-10-14T05:10:06.938Z,6.87
2017-10-14T05:12:40.502Z,7.10
2017-10-14T05:15:14.124Z,7.90
2017-10-14T05:17:47.707Z,7.60
2017-10-14T05:20:21.315Z,7.35
2017-10-14T05:22:54.949Z,6.35
2017-10-14T05:25:28.500Z,6.18
2017-10-14T05:28:02.100Z,6.60
2017-10-14T05:30:36.498Z,5.85
2017-10-14T05:33:10.062Z,7.10
2017-10-14T05:35:43.665Z,6.15
2017-10-14T05:38:17.224Z,7.78
2017-10-14T05:40:50.853Z,6.12
2017-10-14T05:43:24.427Z,5.37
2017-10-14T05:45:58.044Z,4.82
2017-10-14T05:48:31.651Z,6.62
2017-10-14T05:51:05.215Z,5.60
2017-10-14T05:53:38.752Z,5.20
2017-10-14T05:56:12.367Z,5.60
2017-10-14T05:58:45.935Z,7.43
2017-10-14T06:01:19.498Z,10.18
2017-10-14T06:03:53.149Z,4.20
2017-10-14T06:06:26.717Z,5.28
2017-10-14T06:09:00.769Z,4.93
2017-10-14T06:11:40.160Z,4.20
2017-10-14T06:14:14.508Z,5.15
2017-10-14T06:16:48.834Z,5.43
2017-10-14T06:19:22.497Z,5.00
2017-10-14T06:21:56.079Z,8.70
2017-10-14T06:24:29.689Z,8.45
2017-10-14T06:27:03.254Z,5.60
2017-10-14T06:29:36.837Z,4.50
2017-10-14T06:32:10.436Z,6.97
2017-10-14T06:34:44.044Z,4.50
2017-10-14T06:37:17.638Z,7.47
2017-10-14T06:39:51.231Z,5.87
2017-10-14T06:42:24.836Z,6.30
2017-10-14T06:44:58.416Z,7.93
2017-10-14T06:47:31.962Z,6.80
2017-10-14T06:50:05.456Z,6.10
2017-10-14T06:52:38.997Z,5.93
2017-10-14T06:55:12.729Z,7.15
2017-10-14T06:57:46.297Z,9.60
2017-10-14T07:00:19.809Z,8.25
2017-10-14T07:02:53.323Z,5.93
2017-10-14T07:05:26.844Z,6.20
2017-10-14T07:08:00.449Z,6.28
2017-10-14T07:10:33.994Z,5.72
2017-10-14T07:13:08.376Z,5.75
2017-10-14T07:15:41.934Z,6.32
2017-10-14T07:18:16.323Z,5.95
2017-10-14T07:20:50.687Z,7.50
2017-10-14T07:23:24.332Z,4.80
2017-10-14T07:25:57.997Z,4.82
2017-10-14T07:28:31.595Z,5.57
2017-10-14T07:31:05.117Z,7.30
2017-10-14T07:33:38.696Z,6.80
2017-10-14T07:36:13.078Z,6.80
2017-10-14T07:38:46.594Z,6.90
2017-10-14T07:41:20.192Z,7.00
2017-10-14T07:43:53.825Z,7.97
2017-10-14T07:46:27.353Z,6.87
2017-10-14T07:49:01.110Z,6.00
2017-10-14T07:51:34.662Z,6.00
2017-10-14T07:54:08.277Z,6.30
2017-10-14T07:56:42.018Z,7.35
2017-10-14T07:59:15.611Z,6.80
2017-10-14T08:01:49.317Z,7.20
2017-10-14T08:04:22.964Z,7.28
2017-10-14T08:06:56.511Z,7.37
2017-10-14T08:09:30.198Z,6.55
2017-10-14T08:12:04.543Z,6.30
2017-10-14T08:14:38.299Z,5.75
2017-10-14T08:17:11.870Z,4.82
2017-10-14T08:19:45.559Z,5.15
2017-10-14T08:22:20.064Z,7.37
2017-10-14T08:24:54.625Z,5.65
2017-10-14T08:27:29.101Z,6.18
2017-10-14T08:30:02.629Z,6.90
2017-10-14T08:32:36.296Z,6.35
2017-10-14T08:35:10.128Z,6.40
2017-10-14T08:37:43.703Z,4.78
2017-10-14T08:40:17.232Z,4.90
2017-10-14T08:42:50.738Z,6.47
2017-10-14T08:45:24.306Z,5.30
2017-10-14T08:47:57.890Z,4.37
2017-10-14T08:50:31.469Z,4.22
2017-10-14T08:53:05.139Z,7.35
2017-10-14T08:55:38.994Z,3.40
2017-10-14T08:58:13.332Z,2.85
2017-10-14T09:00:47.037Z,7.07
2017-10-14T09:03:20.772Z,2.90
2017-10-14T09:05:54.351Z,2.95
2017-10-14T09:08:27.966Z,5.90
2017-10-14T09:11:01.584Z,2.70
2017-10-14T09:13:35.398Z,2.83
2017-10-14T09:16:09.095Z,4.45
2017-10-14T09:18:43.488Z,7.00
2017-10-14T09:21:17.543Z,3.58
2017-10-14T09:23:52.177Z,3.47
2017-10-14T09:26:27.294Z,9.32
2017-10-14T09:29:02.475Z,5.87
2017-10-14T09:31:36.145Z,4.03
2017-10-14T09:34:09.705Z,2.33
2017-10-14T09:36:43.310Z,2.80
2017-10-14T09:39:16.898Z,2.95
2017-10-14T09:41:50.486Z,4.80
2017-10-14T09:44:24.244Z,3.47
2017-10-14T09:46:57.823Z,5.40
2017-10-14T09:49:31.510Z,3.60
2017-10-14T09:52:05.043Z,2.90
2017-10-14T09:54:38.866Z,2.67
2017-10-14T09:57:12.509Z,3.05
2017-10-14T09:59:46.030Z,3.08
2017-10-14T10:02:19.618Z,2.42
2017-10-14T10:04:53.171Z,3.90
2017-10-14T10:07:26.962Z,4.47
2017-10-14T10:10:00.546Z,3.12
2017-10-14T10:12:34.119Z,3.10
2017-10-14T10:15:07.902Z,2.40
2017-10-14T10:17:41.500Z,2.75
2017-10-14T10:20:15.282Z,2.67
2017-10-14T10:22:49.032Z,2.78
2017-10-14T10:25:22.544Z,2.20
2017-10-14T10:27:56.144Z,2.42
2017-10-14T10:30:29.953Z,2.30
2017-10-14T10:33:04.318Z,2.35
2017-10-14T10:35:37.913Z,2.53
2017-10-14T10:38:11.767Z,3.10
2017-10-14T10:40:45.358Z,2.60
2017-10-14T10:43:19.783Z,2.00
2017-10-14T10:45:53.605Z,3.03
2017-10-14T10:48:27.171Z,2.45
2017-10-14T10:51:00.789Z,1.95
2017-10-14T10:53:34.328Z,2.90
2017-10-14T10:56:07.888Z,2.97
2017-10-14T10:58:41.491Z,2.40
2017-10-14T11:01:15.068Z,2.50
2017-10-14T11:03:48.583Z,2.03
2017-10-14T11:06:22.165Z,2.50
2017-10-14T11:08:55.764Z,2.10
2017-10-14T11:11:29.374Z,2.22
2017-10-14T11:14:02.914Z,1.77
2017-10-14T11:16:36.504Z,1.90
2017-10-14T11:19:10.153Z,2.35
2017-10-14T11:21:43.866Z,2.20
2017-10-14T11:24:17.365Z,1.98
2017-10-14T11:26:50.894Z,2.10
2017-10-14T11:29:25.208Z,2.53
2017-10-14T11:31:58.906Z,1.75
2017-10-14T11:34:32.501Z,1.98
2017-10-14T11:37:06.014Z,1.80
2017-10-14T11:39:39.739Z,1.80
2017-10-14T11:42:13.285Z,1.90
2017-10-14T11:44:46.799Z,1.70
2017-10-14T11:47:20.516Z,2.28
2017-10-14T11:49:54.083Z,1.90
2017-10-14T11:52:27.899Z,2.20
2017-10-14T11:55:01.843Z,2.10
2017-10-14T11:57:35.569Z,1.80
2017-10-14T12:00:09.474Z,2.40
2017-10-14T12:02:43.921Z,1.50
2017-10-14T12:05:17.714Z,1.80
2017-10-14T12:07:51.352Z,2.30
2017-10-14T12:10:25.161Z,1.85
2017-10-14T12:12:58.771Z,1.70
2017-10-14T12:15:32.373Z,1.95
2017-10-14T12:18:05.961Z,1.80
2017-10-14T12:20:39.568Z,1.48
2017-10-14T12:23:13.178Z,1.77
2017-10-14T12:25:46.769Z,1.65
2017-10-14T12:28:20.316Z,1.55
2017-10-14T12:30:54.598Z,2.30
2017-10-14T12:33:28.985Z,2.05
2017-10-14T12:36:02.789Z,1.85
2017-10-14T12:38:36.516Z,2.30
2017-10-14T12:41:10.129Z,2.00
2017-10-14T12:43:43.855Z,1.90
2017-10-14T12:46:17.460Z,2.35
2017-10-14T12:48:51.002Z,1.60
2017-10-14T12:51:24.625Z,1.58
2017-10-14T12:53:59.022Z,1.80
2017-10-14T12:56:33.456Z,2.40
2017-10-14T12:59:07.212Z,1.70
2017-10-14T13:01:40.780Z,1.85
2017-10-14T13:04:14.320Z,1.80
2017-10-14T13:06:47.820Z,2.10
2017-10-14T13:09:21.625Z,2.30
2017-10-14T13:11:55.260Z,1.98
2017-10-14T13:14:28.843Z,1.83
2017-10-14T13:17:02.441Z,1.85
2017-10-14T13:19:36.963Z,2.40
2017-10-14T13:22:10.708Z,2.10
2017-10-14T13:24:44.273Z,1.77
2017-10-14T13:27:18.544Z,2.10
2017-10-14T13:29:52.221Z,2.10
2017-10-14T13:32:25.806Z,1.73
2017-10-14T13:34:59.372Z,1.83
2017-10-14T13:37:32.928Z,1.65
2017-10-14T13:40:06.511Z,2.03
2017-10-14T13:42:40.084Z,2.35
2017-10-14T13:45:13.680Z,1.90
2017-10-14T13:47:47.298Z,2.20
2017-10-14T13:50:21.006Z,2.28
2017-10-14T13:52:54.518Z,2.15
2017-10-14T13:55:28.206Z,1.90
2017-10-14T13:58:01.765Z,2.20
2017-10-14T14:00:35.380Z,1.85
2017-10-14T14:03:09.015Z,1.87
2017-10-14T14:05:42.575Z,2.17
2017-10-14T14:08:16.183Z,1.83
2017-10-14T14:10:49.917Z,1.90
2017-10-14T14:13:23.490Z,2.00
2017-10-14T14:15:57.077Z,2.00
2017-10-14T14:18:30.703Z,1.80
2017-10-14T14:21:04.612Z,2.17
2017-10-14T14:23:39.068Z,1.98
2017-10-14T14:26:12.801Z,1.73
2017-10-14T14:28:46.348Z,2.50
2017-10-14T14:31:20.892Z,2.20
2017-10-14T14:33:54.461Z,2.20
2017-10-14T14:36:27.991Z,2.03
2017-10-14T14:39:01.619Z,2.10
2017-10-14T14:41:35.411Z,2.35
2017-10-14T14:44:09.240Z,2.55
2017-10-14T14:46:42.970Z,2.10
2017-10-14T14:49:16.563Z,2.30
2017-10-14T14:51:50.177Z,2.37
2017-10-14T14:54:23.889Z,2.28
2017-10-14T14:56:58.353Z,2.65
2017-10-14T14:59:32.074Z,2.40
2017-10-14T15:02:06.059Z,2.40
2017-10-14T15:04:39.827Z,2.10
2017-10-14T15:07:13.698Z,2.08
2017-10-14T15:09:49.101Z,2.20
2017-10-14T15:12:23.648Z,2.00
2017-10-14T15:14:57.401Z,2.15
2017-10-14T15:17:30.910Z,2.22
2017-10-14T15:20:04.463Z,2.42
2017-10-14T15:22:38.068Z,2.12
2017-10-14T15:25:11.702Z,2.25
2017-10-14T15:27:45.200Z,1.90
2017-10-14T15:30:18.821Z,2.80
2017-10-14T15:32:53.135Z,2.45
2017-10-14T15:35:26.833Z,2.30
2017-10-14T15:38:00.404Z,2.20
2017-10-14T15:40:34.036Z,2.50
2017-10-14T15:43:07.609Z,2.50
2017-10-14T15:45:41.157Z,2.85
2017-10-14T15:48:14.686Z,2.35
2017-10-14T15:50:48.326Z,2.20
2017-10-14T15:53:21.899Z,2.20
2017-10-14T15:55:55.534Z,2.35
2017-10-14T15:58:29.085Z,2.40
2017-10-14T16:01:02.592Z,2.10
2017-10-14T16:03:36.316Z,2.22
2017-10-14T16:06:11.490Z,3.00
2017-10-14T16:08:45.235Z,2.60
2017-10-14T16:11:18.792Z,2.35
2017-10-14T16:13:52.336Z,2.40
2017-10-14T16:16:25.909Z,2.62
2017-10-14T16:18:59.515Z,2.87
2017-10-14T16:21:33.164Z,2.67
2017-10-14T16:24:06.705Z,2.80
2017-10-14T16:26:41.007Z,2.85
2017-10-14T16:29:14.493Z,2.60
2017-10-14T16:31:48.072Z,2.80
2017-10-14T16:34:21.656Z,3.00
2017-10-14T16:36:55.278Z,2.78
2017-10-14T16:39:28.882Z,3.40
2017-10-14T16:42:02.476Z,2.80
2017-10-14T16:44:36.075Z,3.00
2017-10-14T16:47:09.688Z,2.53
2017-10-14T16:49:43.431Z,4.15
2017-10-14T16:52:17.193Z,3.25
2017-10-14T16:54:50.888Z,3.45
2017-10-14T16:57:24.444Z,2.95
2017-10-14T16:59:58.087Z,2.85
2017-10-14T17:02:32.412Z,3.10
2017-10-14T17:05:05.973Z,3.83
2017-10-14T17:07:39.610Z,3.12
2017-10-14T17:10:13.396Z,4.00
2017-10-14T17:12:46.996Z,2.83
2017-10-14T17:15:20.524Z,3.30
2017-10-14T17:17:54.221Z,3.92
2017-10-14T17:20:27.788Z,4.60
2017-10-14T17:23:01.328Z,6.50
2017-10-14T17:25:34.916Z,8.80
2017-10-14T17:28:08.567Z,4.57
2017-10-14T17:30:43.009Z,4.55
2017-10-14T17:33:17.550Z,4.30
2017-10-14T17:35:51.329Z,5.82
2017-10-14T17:38:24.865Z,4.03
2017-10-14T17:40:58.599Z,3.85
2017-10-14T17:43:32.386Z,3.45
2017-10-14T17:46:06.796Z,5.93
2017-10-14T17:48:41.368Z,7.30
2017-10-14T17:51:15.136Z,6.87
2017-10-14T17:53:48.883Z,7.85
2017-10-14T17:56:22.742Z,6.30
2017-10-14T17:58:57.392Z,4.03
2017-10-14T18:01:31.811Z,3.20
2017-10-14T18:04:05.480Z,3.05
2017-10-14T18:06:39.262Z,4.62
2017-10-14T18:09:13.163Z,3.80
2017-10-14T18:11:47.240Z,4.55
2017-10-14T18:14:21.090Z,4.15
2017-10-14T18:16:54.992Z,3.85
2017-10-14T18:19:28.898Z,4.85
2017-10-14T18:22:02.648Z,5.10
2017-10-14T18:24:37.020Z,4.70
2017-10-14T18:27:10.852Z,5.18
2017-10-14T18:29:44.465Z,6.12
2017-10-14T18:32:17.965Z,5.50
2017-10-14T18:34:51.534Z,4.90
2017-10-14T18:37:25.113Z,5.05
2017-10-14T18:39:58.756Z,5.28
2017-10-14T18:42:32.348Z,9.57
2017-10-14T18:45:05.915Z,10.80
2017-10-14T18:47:39.618Z,10.18
2017-10-14T18:50:13.974Z,15.73
2017-10-14T18:52:47.697Z,27.15
2017-10-14T18:55:21.256Z,26.17
2017-10-14T18:57:54.798Z,21.05
2017-10-14T19:00:28.511Z,13.98
2017-10-14T19:03:02.085Z,7.82
2017-10-14T19:05:35.756Z,9.45
2017-10-14T19:08:09.294Z,10.15
2017-10-14T19:10:42.848Z,11.10
2017-10-14T19:13:17.198Z,8.98
2017-10-14T19:15:50.888Z,6.62
2017-10-14T19:18:24.481Z,6.25
2017-10-14T19:20:58.098Z,5.55
2017-10-14T19:23:32.381Z,5.00
2017-10-14T19:26:06.912Z,5.28
2017-10-14T19:28:40.649Z,4.55
2017-10-14T19:31:14.939Z,5.05
2017-10-14T19:33:48.637Z,4.95
2017-10-14T19:36:22.243Z,4.15
2017-10-14T19:38:55.854Z,4.15
2017-10-14T19:41:29.375Z,4.90
2017-10-14T19:44:03.033Z,4.50
2017-10-14T19:46:36.632Z,4.80
2017-10-14T19:49:10.167Z,4.28
2017-10-14T19:51:44.555Z,5.82
2017-10-14T19:54:18.965Z,5.82
2017-10-14T19:56:52.652Z,5.87
2017-10-14T19:59:26.185Z,6.72
2017-10-14T20:01:59.761Z,6.37
2017-10-14T20:04:33.390Z,6.50
2017-10-14T20:07:06.893Z,6.55
2017-10-14T20:09:41.225Z,6.22
2017-10-14T20:12:14.795Z,4.35
2017-10-14T20:14:48.457Z,4.82
2017-10-14T20:17:21.997Z,5.70
2017-10-14T20:19:56.321Z,4.95
2017-10-14T20:22:30.833Z,5.40
2017-10-14T20:25:05.241Z,6.10
2017-10-14T20:27:38.912Z,9.23
2017-10-14T20:30:12.533Z,7.35
2017-10-14T20:32:46.138Z,5.40
2017-10-14T20:35:19.798Z,5.75
2017-10-14T20:37:53.295Z,5.45
2017-10-14T20:40:27.578Z,5.12
2017-10-14T20:43:01.190Z,4.65
2017-10-14T20:45:34.764Z,4.72
2017-10-14T20:48:08.387Z,5.15
2017-10-14T20:50:41.960Z,4.87
2017-10-14T20:53:15.577Z,4.53
2017-10-14T20:55:49.222Z,6.40
2017-10-14T20:58:22.804Z,8.65
2017-10-14T21:00:56.476Z,4.95
2017-10-14T21:03:30.164Z,4.30
2017-10-14T21:06:06.601Z,7.30
2017-10-14T21:08:41.250Z,7.40
2017-10-14T21:11:15.104Z,7.15
2017-10-14T21:13:48.909Z,10.88
2017-10-14T21:16:23.847Z,7.32
2017-10-14T21:18:57.571Z,9.55
2017-10-14T21:21:32.600Z,9.00
2017-10-14T21:24:06.402Z,7.70
2017-10-14T21:26:40.923Z,5.53
2017-10-14T21:29:14.615Z,9.23
2017-10-14T21:31:49.853Z,8.52
2017-10-14T21:34:24.383Z,11.77
2017-10-14T21:36:58.524Z,8.30
2017-10-14T21:39:32.242Z,11.32
2017-10-14T21:42:08.428Z,9.18
2017-10-14T21:44:42.950Z,13.35
2017-10-14T21:47:16.573Z,6.72
2017-10-14T21:49:50.461Z,6.80
2017-10-14T21:52:25.124Z,7.30
2017-10-14T21:54:59.651Z,10.20
2017-10-14T21:57:34.903Z,10.25
2017-10-14T22:00:10.482Z,5.10
2017-10-14T22:02:44.343Z,9.05
2017-10-14T22:05:18.235Z,7.25
2017-10-14T22:07:52.809Z,6.75
2017-10-14T22:10:27.276Z,7.82
2017-10-14T22:13:01.438Z,7.55
2017-10-14T22:15:35.285Z,6.97
2017-10-14T22:18:09.520Z,9.07
2017-10-14T22:20:43.358Z,10.20
2017-10-14T22:23:18.501Z,7.57
2017-10-14T22:25:54.858Z,6.93
2017-10-14T22:28:29.393Z,9.35
2017-10-14T22:31:03.330Z,10.82
2017-10-14T22:33:37.424Z,9.95
2017-10-14T22:36:12.273Z,8.70
2017-10-14T22:38:47.162Z,9.52
2017-10-14T22:41:22.115Z,16.17
2017-10-14T22:43:56.029Z,15.43
2017-10-14T22:46:30.757Z,17.87
2017-10-14T22:49:04.802Z,20.45
2017-10-14T22:51:41.427Z,12.98
2017-10-14T22:54:16.501Z,12.00
2017-10-14T22:56:50.603Z,13.40
2017-10-14T22:59:24.907Z,11.35
2017-10-14T23:02:02.057Z,12.50
2017-10-14T23:04:35.906Z,13.50
2017-10-14T23:07:09.809Z,14.63
2017-10-14T23:09:43.544Z,15.88
2017-10-14T23:12:18.593Z,16.25
2017-10-14T23:14:52.698Z,19.17
2017-10-14T23:17:27.414Z,14.98
2017-10-14T23:20:01.379Z,14.75
2017-10-14T23:22:35.488Z,13.85
2017-10-14T23:25:09.344Z,14.05
2017-10-14T23:27:43.442Z,15.52
2017-10-14T23:30:19.010Z,17.42
2017-10-14T23:32:53.464Z,11.95
2017-10-14T23:35:27.706Z,11.07
2017-10-14T23:38:02.055Z,10.65
2017-10-14T23:40:35.972Z,7.97
2017-10-14T23:43:10.658Z,8.02
2017-10-14T23:45:45.861Z,10.38
2017-10-14T23:48:19.660Z,8.73
2017-10-14T23:50:54.276Z,12.98
2017-10-14T23:53:28.173Z,7.28
2017-10-14T23:56:02.212Z,4.90
2017-10-14T23:58:37.748Z,6.43
